Time;durP1;ratioP1;P1;durP2;ratioP2;P2;SDS_P1;SDS_P2;PMS_P1;PMS_P2;Temp;Humidity;BMP_temperature;BMP_pressure;BME280_temperature;BME280_humidity;BME280_pressure;Samples;Min_cycle;Max_cycle;Signal;HPM_P1;HPM_P2
2022/03/16 04:00:07;;;;;;;0.85;0.82;;;17.70;48.60;;;;;;6096178;23;46235;31
2022/03/16 04:02:32;;;;;;;1.08;0.98;;;17.70;48.60;;;;;;4905387;28;44998;-70
2022/03/16 04:04:58;;;;;;;1.42;1.15;;;17.70;48.70;;;;;;4944366;28;45909;-60
2022/03/16 04:07:24;;;;;;;1.42;1.08;;;17.70;48.70;;;;;;4928656;28;45577;-64
2022/03/16 04:09:50;;;;;;;1.20;1.10;;;17.60;48.60;;;;;;4938517;28;45059;-66
2022/03/16 04:12:17;;;;;;;1.20;1.10;;;17.60;48.60;;;;;;4956745;28;45155;-65
2022/03/16 04:14:43;;;;;;;0.90;0.90;;;17.60;48.60;;;;;;4969673;28;45546;-63
2022/03/16 04:17:09;;;;;;;1.10;1.00;;;17.60;48.70;;;;;;4976781;28;45075;-66
2022/03/16 04:19:34;;;;;;;1.42;1.00;;;17.60;48.60;;;;;;4959408;28;45290;-69
2022/03/16 04:22:00;;;;;;;1.23;1.02;;;17.60;48.60;;;;;;4957971;28;46039;-59
2022/03/16 04:24:25;;;;;;;1.25;1.15;;;17.60;48.70;;;;;;4956275;28;45426;-59
2022/03/16 04:26:51;;;;;;;1.23;1.00;;;17.60;48.70;;;;;;4958657;28;45212;-67
2022/03/16 04:29:17;;;;;;;1.13;1.02;;;17.60;48.70;;;;;;4953968;28;45276;-62
2022/03/16 04:31:43;;;;;;;1.00;0.90;;;17.50;48.70;;;;;;4952961;28;45078;-56
2022/03/16 04:34:08;;;;;;;1.10;1.00;;;17.60;48.70;;;;;;4956701;28;46172;-69
2022/03/16 04:36:34;;;;;;;1.17;1.08;;;17.60;48.80;;;;;;4957601;28;44859;-64
2022/03/16 04:38:59;;;;;;;1.25;1.05;;;17.50;48.70;;;;;;4957888;28;45198;-70
2022/03/16 04:41:25;;;;;;;0.90;0.90;;;17.50;48.80;;;;;;4961934;28;45277;-60
2022/03/16 04:43:50;;;;;;;1.13;1.02;;;17.50;48.80;;;;;;4958776;28;46083;-58
2022/03/16 04:46:16;;;;;;;1.10;1.00;;;17.50;48.70;;;;;;4961182;28;45937;-59
2022/03/16 04:48:42;;;;;;;1.10;1.00;;;17.50;48.70;;;;;;4968087;28;45256;-61
2022/03/16 04:51:07;;;;;;;1.08;1.02;;;17.50;48.80;;;;;;4962918;28;44873;-67
2022/03/16 04:53:33;;;;;;;1.30;1.10;;;17.40;48.80;;;;;;4962699;28;45167;-55
2022/03/16 04:55:58;;;;;;;1.10;1.00;;;17.50;48.80;;;;;;4964187;28;45239;-65
2022/03/16 04:58:24;;;;;;;1.20;0.95;;;17.50;48.80;;;;;;4965815;28;44941;-63
2022/03/16 05:00:50;;;;;;;1.10;1.00;;;17.40;48.70;;;;;;4953936;28;45171;-60
2022/03/16 05:03:15;;;;;;;1.13;1.02;;;17.50;48.80;;;;;;4955265;28;45562;-73
2022/03/16 05:05:41;;;;;;;1.73;0.93;;;17.40;48.70;;;;;;4958162;28;45220;-60
2022/03/16 05:08:07;;;;;;;1.10;1.00;;;17.40;48.80;;;;;;4955065;28;44974;-65
2022/03/16 05:10:32;;;;;;;1.10;1.00;;;17.40;48.70;;;;;;4958626;28;45589;-65
2022/03/16 05:12:58;;;;;;;0.90;0.90;;;17.40;48.80;;;;;;4961011;28;46957;-66
2022/03/16 05:15:23;;;;;;;1.13;1.00;;;17.40;48.80;;;;;;4960239;28;45392;-62
2022/03/16 05:17:49;;;;;;;1.23;1.00;;;17.40;48.80;;;;;;4943558;28;45481;-72
2022/03/16 05:20:15;;;;;;;0.88;0.88;;;17.40;48.80;;;;;;4958402;28;45522;-61
2022/03/16 05:22:47;;;;;;;1.02;0.98;;;17.40;48.90;;;;;;4965147;28;46152;-67
2022/03/16 05:25:14;;;;;;;1.00;0.90;;;17.30;48.80;;;;;;4958189;28;45146;-61
2022/03/16 05:27:40;;;;;;;1.40;1.02;;;17.30;48.90;;;;;;4957161;28;45422;-58
2022/03/16 05:30:06;;;;;;;1.20;0.90;;;17.30;48.80;;;;;;4939611;28;44770;-65
2022/03/16 05:32:32;;;;;;;0.85;0.80;;;17.30;48.90;;;;;;4951732;28;46529;-70
2022/03/16 05:34:58;;;;;;;0.68;0.68;;;17.30;48.90;;;;;;4938564;28;45555;-63
2022/03/16 05:37:23;;;;;;;1.20;1.10;;;17.30;48.90;;;;;;4952623;28;45339;-64
2022/03/16 05:39:49;;;;;;;1.13;1.02;;;17.30;48.80;;;;;;4970674;28;45441;-60
2022/03/16 05:42:15;;;;;;;1.08;0.98;;;17.30;48.90;;;;;;4951483;28;45510;-62
2022/03/16 05:44:40;;;;;;;0.90;0.90;;;17.30;49.00;;;;;;4957259;28;45542;-65
2022/03/16 05:47:06;;;;;;;1.30;1.15;;;17.30;49.00;;;;;;4970909;28;45551;-66
2022/03/16 05:49:32;;;;;;;1.00;0.90;;;17.20;48.90;;;;;;4948719;28;45365;-61
2022/03/16 05:51:57;;;;;;;1.45;1.10;;;17.20;48.90;;;;;;4952372;28;45420;-65
2022/03/16 05:54:23;;;;;;;0.93;0.90;;;17.20;48.90;;;;;;4955293;28;45170;-61
2022/03/16 05:56:48;;;;;;;1.08;0.98;;;17.20;48.90;;;;;;4957150;28;45297;-71
2022/03/16 05:59:14;;;;;;;1.27;1.17;;;17.20;48.80;;;;;;4956121;28;45592;-59
2022/03/16 06:01:39;;;;;;;1.15;0.98;;;17.20;48.80;;;;;;4954669;28;45955;-65
2022/03/16 06:04:05;;;;;;;1.08;0.90;;;17.20;48.90;;;;;;4955914;28;45334;-67
2022/03/16 06:06:31;;;;;;;0.80;0.80;;;17.20;48.90;;;;;;4957073;28;45442;-63
2022/03/16 06:08:57;;;;;;;1.30;0.90;;;17.20;48.80;;;;;;4956224;28;45020;-65
2022/03/16 06:11:23;;;;;;;1.10;1.00;;;17.20;48.80;;;;;;4954246;28;47626;-66
2022/03/16 06:13:49;;;;;;;1.67;1.38;;;17.20;48.90;;;;;;4955906;28;45285;-68
2022/03/16 06:16:14;;;;;;;1.27;1.10;;;17.20;48.90;;;;;;4963380;28;45509;-61
2022/03/16 06:18:40;;;;;;;1.35;0.98;;;17.20;49.50;;;;;;4957543;28;45275;-61
2022/03/16 06:21:06;;;;;;;1.60;1.00;;;17.20;49.40;;;;;;4967534;28;45306;-68
2022/03/16 06:23:31;;;;;;;1.52;1.30;;;17.20;48.80;;;;;;4957399;28;44991;-60
2022/03/16 06:25:57;;;;;;;0.88;0.82;;;17.20;48.90;;;;;;4954741;28;45226;-68
2022/03/16 06:28:23;;;;;;;1.98;1.13;;;17.20;48.80;;;;;;4954199;28;45462;-65
2022/03/16 06:30:48;;;;;;;1.58;1.30;;;17.10;48.90;;;;;;4949485;28;45111;-68
2022/03/16 06:33:14;;;;;;;1.25;1.15;;;17.10;48.80;;;;;;4950161;28;44975;-62
2022/03/16 06:35:40;;;;;;;1.23;1.13;;;17.20;48.90;;;;;;4955283;28;44816;-67
2022/03/16 06:38:05;;;;;;;1.08;0.98;;;17.10;48.80;;;;;;4956030;28;45708;-67
2022/03/16 06:40:31;;;;;;;1.08;0.98;;;17.10;48.90;;;;;;4963391;28;45874;-57
2022/03/16 06:42:58;;;;;;;1.17;1.08;;;17.10;48.90;;;;;;4956556;28;45445;-62
2022/03/16 06:45:24;;;;;;;1.65;1.10;;;17.10;49.00;;;;;;4964178;28;45210;-69
2022/03/16 06:47:50;;;;;;;1.17;1.08;;;17.10;49.00;;;;;;4954227;28;45278;-60
2022/03/16 06:50:15;;;;;;;1.67;1.10;;;17.00;48.90;;;;;;4955343;28;45937;-66
2022/03/16 06:52:41;;;;;;;1.15;1.00;;;17.10;48.90;;;;;;4957011;28;45179;-60
2022/03/16 06:55:07;;;;;;;0.80;0.80;;;17.10;48.90;;;;;;4955334;28;45272;-62
2022/03/16 06:57:33;;;;;;;1.35;1.25;;;17.00;48.90;;;;;;4955192;28;44943;-70
2022/03/16 06:59:59;;;;;;;1.08;0.98;;;17.00;48.90;;;;;;4954924;28;45274;-60
2022/03/16 07:02:24;;;;;;;1.02;0.93;;;17.10;48.90;;;;;;4953509;28;45204;-64
2022/03/16 07:04:50;;;;;;;1.10;1.00;;;17.10;48.70;;;;;;4955692;28;45483;-65
2022/03/16 07:07:15;;;;;;;0.80;0.80;;;17.20;48.60;;;;;;4959219;28;45433;-62
2022/03/16 07:09:41;;;;;;;0.80;0.80;;;17.30;48.50;;;;;;4966440;28;45428;-62
2022/03/16 07:12:07;;;;;;;1.33;1.02;;;17.40;48.40;;;;;;4956799;28;45195;-65
2022/03/16 07:14:34;;;;;;;0.80;0.80;;;17.50;48.40;;;;;;4961597;28;44774;-59
2022/03/16 07:16:59;;;;;;;1.17;0.80;;;17.60;48.20;;;;;;4964956;28;45489;-60
2022/03/16 07:19:26;;;;;;;1.08;0.80;;;17.70;48.00;;;;;;4960943;28;45401;-61
2022/03/16 07:21:51;;;;;;;0.77;0.77;;;17.80;47.80;;;;;;4957829;28;45609;-60
2022/03/16 07:24:17;;;;;;;1.13;1.00;;;17.90;47.80;;;;;;4958883;28;45084;-59
2022/03/16 07:26:42;;;;;;;1.13;0.80;;;18.00;47.60;;;;;;4960299;28;46003;-63
2022/03/16 07:29:08;;;;;;;1.10;0.77;;;18.10;47.60;;;;;;4962028;28;47660;-60
2022/03/16 07:31:34;;;;;;;1.13;0.63;;;18.20;47.40;;;;;;4978791;28;45158;-60
2022/03/16 07:34:00;;;;;;;0.50;0.50;;;18.30;47.30;;;;;;4971657;28;44842;-65
2022/03/16 07:36:26;;;;;;;0.73;0.60;;;18.40;47.10;;;;;;4959472;28;46246;-56
2022/03/16 07:38:51;;;;;;;0.70;0.70;;;18.60;47.00;;;;;;4958151;28;46212;-64
2022/03/16 07:41:17;;;;;;;0.70;0.70;;;18.70;46.90;;;;;;4957893;28;45377;-56
2022/03/16 07:43:42;;;;;;;0.70;0.65;;;18.80;46.70;;;;;;4959866;28;45424;-64
2022/03/16 07:46:08;;;;;;;0.63;0.63;;;18.90;46.60;;;;;;4961011;28;44854;-64
2022/03/16 07:48:38;;;;;;;0.60;0.60;;;19.00;46.50;;;;;;4960678;28;46139;-62
2022/03/16 07:51:03;;;;;;;0.63;0.63;;;19.10;46.40;;;;;;4960466;28;45359;-64
2022/03/16 07:53:29;;;;;;;0.90;0.75;;;19.20;46.30;;;;;;4974918;28;44693;-65
2022/03/16 07:55:56;;;;;;;0.60;0.52;;;19.40;46.20;;;;;;4970486;28;45520;-61
2022/03/16 07:58:22;;;;;;;0.47;0.47;;;19.50;46.10;;;;;;4977471;28;45258;-65
2022/03/16 08:00:48;;;;;;;1.13;0.70;;;19.60;46.10;;;;;;4959874;28;45076;-59
2022/03/16 08:03:13;;;;;;;0.80;0.80;;;19.60;45.90;;;;;;4964120;28;45531;-59
2022/03/16 08:05:39;;;;;;;1.77;0.70;;;19.80;45.90;;;;;;4971773;28;45281;-62
2022/03/16 08:08:05;;;;;;;2.55;0.68;;;19.90;45.90;;;;;;4979203;28;46362;-59
2022/03/16 08:10:31;;;;;;;0.55;0.52;;;19.90;45.70;;;;;;4968191;28;45554;-64
2022/03/16 08:12:56;;;;;;;0.57;0.57;;;20.10;45.70;;;;;;4965600;28;45558;-64
2022/03/16 08:15:22;;;;;;;0.70;0.70;;;20.10;45.50;;;;;;4957912;28;45401;-60
2022/03/16 08:17:48;;;;;;;0.50;0.45;;;20.20;45.50;;;;;;4950366;28;47395;-61
2022/03/16 08:20:13;;;;;;;0.40;0.40;;;20.30;45.30;;;;;;4963773;28;45423;-59
2022/03/16 08:22:39;;;;;;;0.47;0.47;;;20.40;45.30;;;;;;4958138;28;45314;-67
2022/03/16 08:25:07;;;;;;;0.73;0.60;;;20.50;45.20;;;;;;4956575;28;45601;-69
2022/03/16 08:27:32;;;;;;;0.50;0.50;;;20.60;45.20;;;;;;4939377;28;45142;-66
2022/03/16 08:29:58;;;;;;;0.63;0.63;;;20.60;45.20;;;;;;4934402;28;44988;-69
2022/03/16 08:32:24;;;;;;;0.40;0.40;;;20.70;45.20;;;;;;4940575;28;45347;-67
2022/03/16 08:34:50;;;;;;;0.57;0.57;;;20.80;45.10;;;;;;4974301;28;45756;-67
2022/03/16 08:37:17;;;;;;;0.40;0.40;;;20.90;45.00;;;;;;4939814;28;46179;-68
2022/03/16 08:39:42;;;;;;;0.73;0.68;;;20.90;45.00;;;;;;4939689;28;45496;-68
2022/03/16 08:42:08;;;;;;;0.55;0.50;;;21.00;44.90;;;;;;4953373;28;45581;-70
2022/03/16 08:44:34;;;;;;;0.50;0.50;;;21.10;44.90;;;;;;4957222;28;45448;-68
2022/03/16 08:47:00;;;;;;;0.50;0.50;;;21.20;44.80;;;;;;4963101;28;47116;-68
2022/03/16 08:49:25;;;;;;;0.55;0.55;;;21.30;44.80;;;;;;4941221;28;45599;-69
2022/03/16 08:51:51;;;;;;;0.40;0.40;;;21.40;44.60;;;;;;4960439;28;45412;-68
2022/03/16 08:54:19;;;;;;;0.52;0.50;;;21.50;44.60;;;;;;4958559;28;45524;-68
2022/03/16 08:56:45;;;;;;;0.60;0.60;;;21.60;44.50;;;;;;4963563;28;46066;-68
2022/03/16 08:59:10;;;;;;;0.50;0.50;;;21.60;44.40;;;;;;4971328;28;44906;-68
2022/03/16 09:01:37;;;;;;;0.52;0.52;;;21.70;44.30;;;;;;4931755;28;45724;-69
2022/03/16 09:04:03;;;;;;;0.60;0.55;;;21.80;44.30;;;;;;4926990;28;45110;-71
2022/03/16 09:06:29;;;;;;;;;;;21.90;44.20;;;;;;4942325;28;47114;-64
2022/03/16 09:08:54;;;;;;;;;;;22.00;43.90;;;;;;4958957;28;45392;-68
2022/03/16 09:11:20;;;;;;;0.30;0.30;;;22.10;43.70;;;;;;4958775;28;44685;-63
2022/03/16 09:13:47;;;;;;;0.57;0.52;;;22.20;43.80;;;;;;4962711;28;45074;-69
2022/03/16 09:16:15;;;;;;;0.50;0.43;;;22.30;43.70;;;;;;4959342;28;46095;-64
2022/03/16 09:18:41;;;;;;;0.30;0.30;;;22.40;43.60;;;;;;4959879;28;45639;-63
2022/03/16 09:21:07;;;;;;;0.40;0.40;;;22.40;43.60;;;;;;4960922;28;44591;-63
2022/03/16 09:23:32;;;;;;;;;;;22.50;43.50;;;;;;4959258;28;44884;-63
2022/03/16 09:25:59;;;;;;;0.40;0.40;;;22.50;43.10;;;;;;4958529;28;46368;-62
2022/03/16 09:28:25;;;;;;;0.93;0.50;;;22.70;43.40;;;;;;4965325;28;45192;-59
2022/03/16 09:30:51;;;;;;;0.43;0.40;;;22.70;44.00;;;;;;4956906;28;45638;-62
2022/03/16 09:33:17;;;;;;;0.50;0.50;;;22.70;43.30;;;;;;4963616;28;45409;-65
2022/03/16 09:35:44;;;;;;;1.23;0.40;;;22.80;43.30;;;;;;4962147;28;45392;-63
2022/03/16 09:38:10;;;;;;;0.45;0.45;;;22.90;43.30;;;;;;4957332;28;45221;-63
2022/03/16 09:40:36;;;;;;;0.43;0.43;;;22.90;43.20;;;;;;4955946;28;45626;-65
2022/03/16 09:43:07;;;;;;;0.35;0.35;;;22.90;43.20;;;;;;4955975;28;44760;-64
2022/03/16 09:45:34;;;;;;;0.45;0.30;;;23.00;43.20;;;;;;4958805;28;45665;-68
2022/03/16 09:48:00;;;;;;;0.65;0.43;;;23.00;43.20;;;;;;4954627;28;45397;-61
2022/03/16 09:50:25;;;;;;;0.52;0.50;;;23.10;43.10;;;;;;4955237;28;44704;-64
2022/03/16 09:52:51;;;;;;;0.82;0.50;;;23.10;43.10;;;;;;4961745;28;45147;-64
2022/03/16 09:55:18;;;;;;;0.50;0.50;;;23.20;43.20;;;;;;4960671;28;45211;-66
2022/03/16 09:57:44;;;;;;;0.57;0.30;;;23.20;43.10;;;;;;4965193;28;45167;-62
2022/03/16 10:00:14;;;;;;;0.40;0.40;;;23.20;43.10;;;;;;4955300;28;45257;-66
2022/03/16 10:02:40;;;;;;;0.45;0.40;;;23.30;43.00;;;;;;4972715;28;44775;-66
2022/03/16 10:05:07;;;;;;;0.52;0.50;;;23.30;43.00;;;;;;4966137;28;45160;-68
2022/03/16 10:07:36;;;;;;;0.50;0.50;;;23.40;43.00;;;;;;4952779;28;45163;-66
2022/03/16 10:15:30;;;;;;;0.40;0.40;;;23.50;42.90;;;;;;4958871;28;45219;-63
2022/03/16 10:17:59;;;;;;;0.52;0.45;;;23.50;42.90;;;;;;4958274;28;44961;-64
2022/03/16 10:20:35;;;;;;;0.30;0.30;;;23.50;42.90;;;;;;4968618;28;45162;-63
2022/03/16 10:23:12;;;;;;;0.30;0.30;;;23.60;42.70;;;;;;4956437;28;44990;-67
2022/03/16 10:25:45;;;;;;;0.30;0.30;;;23.60;42.70;;;;;;4959151;28;45126;-66
2022/03/16 10:28:17;;;;;;;0.40;0.40;;;23.70;42.90;;;;;;4955678;28;45022;-67
2022/03/16 10:30:58;;;;;;;0.40;0.40;;;23.70;42.70;;;;;;4955463;28;45199;-63
2022/03/16 10:33:55;;;;;;;0.40;0.40;;;23.70;42.60;;;;;;4961954;28;45584;-64
2022/03/16 10:36:22;;;;;;;0.30;0.30;;;23.80;42.50;;;;;;4965146;28;46241;-63
2022/03/16 10:39:02;;;;;;;0.30;0.30;;;23.80;42.70;;;;;;4970295;28;45301;-63
2022/03/16 10:47:15;;;;;;;0.85;0.40;;;23.90;42.70;;;;;;4962595;28;45123;-64
2022/03/16 10:49:41;;;;;;;0.40;0.40;;;24.00;42.50;;;;;;4972104;28;45476;-66
2022/03/16 10:52:14;;;;;;;0.43;0.40;;;24.00;42.60;;;;;;4967123;28;45200;-66
2022/03/16 10:54:40;;;;;;;0.70;0.40;;;24.00;42.50;;;;;;4978240;28;44743;-67
2022/03/16 10:57:10;;;;;;;0.20;0.20;;;24.00;42.50;;;;;;4969611;28;46453;-62
2022/03/16 10:59:36;;;;;;;0.50;0.40;;;24.10;42.60;;;;;;4958843;28;45306;-60
2022/03/16 11:02:12;;;;;;;0.57;0.50;;;24.10;42.50;;;;;;4959203;28;45574;-66
2022/03/16 11:04:42;;;;;;;0.40;0.40;;;24.10;42.30;;;;;;4971574;28;45226;-66
2022/03/16 11:07:08;;;;;;;0.38;0.38;;;24.10;42.50;;;;;;4962377;28;46047;-63
2022/03/16 11:09:34;;;;;;;0.73;0.40;;;24.20;42.50;;;;;;4979559;28;45331;-66
2022/03/16 11:14:47;;;;;;;0.30;0.30;;;24.20;42.50;;;;;;4969342;28;45242;-63
2022/03/16 11:17:12;;;;;;;0.30;0.30;;;24.20;42.50;;;;;;4970516;28;47260;-63
2022/03/16 11:19:38;;;;;;;0.32;0.32;;;24.30;42.50;;;;;;4947254;28;45774;-64
2022/03/16 11:22:10;;;;;;;0.35;0.30;;;24.30;42.40;;;;;;4950314;28;44687;-63
2022/03/16 11:24:38;;;;;;;2.55;0.50;;;24.30;42.30;;;;;;4962920;28;45119;-61
2022/03/16 11:27:40;;;;;;;1.08;0.40;;;24.30;42.30;;;;;;4946994;28;45256;-63
2022/03/16 11:30:27;;;;;;;0.40;0.40;;;24.30;42.10;;;;;;4967243;28;44942;-64
2022/03/16 11:32:57;;;;;;;0.35;0.35;;;24.40;42.10;;;;;;4965117;28;45194;-63
2022/03/16 11:35:29;;;;;;;1.00;0.50;;;24.40;42.30;;;;;;4966440;28;44859;-62
2022/03/16 11:37:54;;;;;;;0.35;0.32;;;24.40;42.30;;;;;;4979225;28;46233;-62
2022/03/16 11:40:24;;;;;;;0.30;0.30;;;24.40;42.30;;;;;;4962101;28;44910;-63
2022/03/16 11:43:08;;;;;;;0.22;0.22;;;24.40;42.20;;;;;;4968505;28;45253;-58
2022/03/16 11:45:46;;;;;;;;;;;24.40;42.10;;;;;;4963995;28;44934;-64
2022/03/16 11:48:36;;;;;;;0.63;0.30;;;24.40;42.00;;;;;;4960255;28;45442;-63
2022/03/16 11:51:20;;;;;;;0.30;0.30;;;24.40;42.10;;;;;;4955188;28;45329;-63
2022/03/16 11:53:57;;;;;;;0.22;0.22;;;24.40;42.20;;;;;;4961971;28;45248;-61
2022/03/16 11:56:36;;;;;;;0.60;0.60;;;24.40;42.30;;;;;;4943421;28;45455;-63
2022/03/16 11:59:31;;;;;;;0.47;0.47;;;24.40;42.10;;;;;;4968153;28;45738;-66
2022/03/16 12:02:12;;;;;;;0.50;0.50;;;24.40;42.30;;;;;;4953153;28;45175;-64
2022/03/16 12:04:43;;;;;;;0.30;0.30;;;24.40;42.20;;;;;;4966808;28;45351;-63
2022/03/16 12:07:12;;;;;;;0.38;0.32;;;24.40;42.30;;;;;;4958365;28;45259;-65
2022/03/16 12:09:53;;;;;;;0.30;0.30;;;24.50;42.20;;;;;;4962941;28;46171;-61
2022/03/16 12:15:19;;;;;;;0.60;0.43;;;24.50;42.30;;;;;;4962206;28;45063;-61
2022/03/16 12:17:54;;;;;;;0.57;0.38;;;24.60;42.30;;;;;;4963401;28;45188;-63
2022/03/16 12:20:40;;;;;;;0.30;0.30;;;24.60;42.20;;;;;;4971587;28;46800;-64
2022/03/16 12:23:10;;;;;;;0.52;0.43;;;24.50;42.10;;;;;;4964316;28;45112;-64
2022/03/16 12:25:40;;;;;;;0.43;0.35;;;24.60;42.30;;;;;;4977945;28;45481;-63
2022/03/16 12:31:02;;;;;;;0.88;0.52;;;24.60;42.30;;;;;;4943015;28;46164;-64
2022/03/16 12:33:42;;;;;;;0.38;0.38;;;24.60;42.30;;;;;;4956550;28;45019;-63
2022/03/16 12:36:15;;;;;;;0.47;0.30;;;24.60;42.30;;;;;;4970145;28;45123;-64
2022/03/16 12:38:45;;;;;;;0.77;0.40;;;24.60;42.30;;;;;;4971550;28;45263;-64
2022/03/16 12:44:06;;;;;;;0.55;0.30;;;24.60;42.30;;;;;;4965308;28;44626;-63
2022/03/16 12:46:33;;;;;;;0.95;0.50;;;24.70;42.20;;;;;;4960125;28;44671;-71
2022/03/16 12:49:06;;;;;;;0.50;0.35;;;24.70;42.30;;;;;;4962338;28;45321;-67
2022/03/16 12:51:38;;;;;;;0.22;0.20;;;24.70;42.30;;;;;;4953375;28;48248;-63
2022/03/16 12:54:07;;;;;;;0.30;0.30;;;24.70;42.20;;;;;;4977818;28;45476;-66
2022/03/16 12:56:43;;;;;;;1.05;0.30;;;24.70;42.40;;;;;;4979201;28;45487;-64
2022/03/16 12:59:09;;;;;;;0.47;0.40;;;24.70;42.20;;;;;;4949997;28;45501;-63
2022/03/16 13:01:34;;;;;;;0.73;0.57;;;24.70;42.30;;;;;;4975339;28;46211;-62
2022/03/16 13:04:01;;;;;;;0.30;0.30;;;24.70;42.40;;;;;;4963919;28;45005;-63
2022/03/16 13:06:33;;;;;;;0.28;0.28;;;24.80;42.40;;;;;;4962995;28;45237;-63
2022/03/16 13:09:04;;;;;;;0.88;0.40;;;24.80;42.40;;;;;;4972863;28;45355;-67
2022/03/16 13:11:32;;;;;;;0.38;0.38;;;24.80;42.40;;;;;;4962840;28;45939;-63
2022/03/16 13:14:07;;;;;;;0.43;0.30;;;24.80;42.40;;;;;;4959400;28;45336;-64
2022/03/16 13:16:34;;;;;;;0.30;0.30;;;24.80;42.40;;;;;;4963239;28;45281;-60
2022/03/16 13:19:02;;;;;;;0.35;0.35;;;24.80;42.40;;;;;;4945141;28;45177;-62
2022/03/16 13:21:28;;;;;;;0.50;0.30;;;24.80;42.40;;;;;;4962562;28;46385;-63
2022/03/16 13:24:03;;;;;;;0.40;0.40;;;24.80;42.40;;;;;;4973262;28;44625;-62
2022/03/16 13:26:29;;;;;;;0.40;0.40;;;24.80;42.40;;;;;;4975096;28;44883;-62
2022/03/16 13:28:58;;;;;;;0.30;0.30;;;24.80;42.50;;;;;;4970759;28;45580;-63
2022/03/16 13:31:27;;;;;;;0.40;0.40;;;24.80;42.50;;;;;;4965280;28;45252;-63
2022/03/16 13:33:54;;;;;;;0.45;0.45;;;24.80;42.40;;;;;;4969185;28;44596;-61
2022/03/16 13:36:32;;;;;;;0.30;0.30;;;24.80;42.50;;;;;;4962119;28;45175;-60
2022/03/16 13:39:00;;;;;;;0.30;0.30;;;24.80;42.40;;;;;;4960919;28;45483;-64
2022/03/16 13:41:25;;;;;;;0.52;0.50;;;24.90;42.60;;;;;;4975837;28;45320;-63
2022/03/16 13:44:04;;;;;;;0.40;0.40;;;24.90;42.50;;;;;;4942753;28;46149;-63
2022/03/16 13:46:39;;;;;;;0.30;0.30;;;24.90;42.50;;;;;;4962057;28;45314;-63
2022/03/16 13:49:14;;;;;;;1.45;0.30;;;24.90;42.60;;;;;;4959169;28;45143;-67
2022/03/16 13:51:59;;;;;;;0.40;0.35;;;24.90;42.60;;;;;;4967957;28;46087;-66
2022/03/16 13:54:26;;;;;;;0.47;0.43;;;24.90;42.60;;;;;;4961334;28;45091;-63
2022/03/16 13:56:53;;;;;;;0.98;0.50;;;24.90;42.60;;;;;;4944858;28;45315;-62
2022/03/16 13:59:19;;;;;;;0.40;0.40;;;24.90;42.60;;;;;;4959376;28;45447;-62
2022/03/16 14:01:45;;;;;;;1.88;0.40;;;24.90;42.60;;;;;;4959940;28;45869;-64
2022/03/16 14:04:11;;;;;;;0.73;0.40;;;24.90;42.60;;;;;;4982738;28;45167;-63
2022/03/16 14:06:38;;;;;;;0.65;0.52;;;25.00;42.70;;;;;;4978020;28;45012;-62
2022/03/16 14:09:13;;;;;;;0.20;0.20;;;24.90;42.60;;;;;;4973344;28;45341;-64
2022/03/16 14:11:38;;;;;;;0.60;0.60;;;24.90;42.60;;;;;;4974218;28;46093;-60
2022/03/16 14:14:11;;;;;;;0.77;0.57;;;24.90;42.70;;;;;;4962912;28;45378;-63
2022/03/16 14:16:38;;;;;;;0.53;0.40;;;24.80;42.70;;;;;;4979126;28;45137;-63
2022/03/16 14:19:24;;;;;;;0.50;0.50;;;24.80;42.90;;;;;;4967007;28;44722;-62
2022/03/16 14:21:49;;;;;;;1.77;0.60;;;24.70;43.00;;;;;;4974995;28;46896;-60
2022/03/16 14:24:15;;;;;;;0.93;0.40;;;24.70;43.10;;;;;;4974831;28;45107;-60
2022/03/16 14:26:41;;;;;;;0.43;0.43;;;24.60;43.10;;;;;;4969771;28;45079;-61
2022/03/16 14:29:06;;;;;;;0.50;0.50;;;24.60;43.20;;;;;;4977500;28;45105;-62
2022/03/16 14:31:33;;;;;;;0.63;0.40;;;24.50;43.30;;;;;;4966446;28;45509;-62
2022/03/16 14:33:59;;;;;;;0.50;0.50;;;24.50;43.40;;;;;;4969071;28;45246;-63
2022/03/16 14:36:28;;;;;;;0.50;0.50;;;24.40;43.40;;;;;;4963443;28;45384;-64
2022/03/16 14:38:53;;;;;;;0.40;0.40;;;24.40;43.50;;;;;;4966349;28;45207;-65
2022/03/16 14:41:19;;;;;;;0.70;0.55;;;24.40;43.50;;;;;;4979064;28;46210;-62
2022/03/16 14:43:45;;;;;;;0.45;0.40;;;24.30;43.60;;;;;;4965580;28;45480;-63
2022/03/16 14:46:11;;;;;;;0.47;0.40;;;24.30;43.70;;;;;;4977049;28;44670;-65
2022/03/16 14:48:37;;;;;;;0.60;0.52;;;24.20;43.70;;;;;;4975040;28;45225;-59
2022/03/16 14:51:02;;;;;;;0.50;0.50;;;24.20;43.80;;;;;;4973276;28;47211;-64
2022/03/16 14:53:28;;;;;;;0.82;0.63;;;24.10;43.80;;;;;;4965092;28;44618;-63
2022/03/16 14:55:53;;;;;;;0.50;0.50;;;24.10;43.90;;;;;;4967969;28;45335;-64
2022/03/16 14:58:19;;;;;;;0.50;0.50;;;24.10;44.00;;;;;;4977341;28;45665;-62
2022/03/16 15:00:45;;;;;;;0.70;0.57;;;24.00;44.00;;;;;;4970024;28;45374;-64
2022/03/16 15:03:11;;;;;;;1.13;0.52;;;24.00;44.10;;;;;;4968549;28;44832;-63
2022/03/16 15:05:36;;;;;;;0.45;0.40;;;23.90;44.10;;;;;;4972224;28;44937;-63
2022/03/16 15:08:02;;;;;;;0.60;0.60;;;23.90;44.20;;;;;;4964059;28;45573;-61
2022/03/16 15:10:28;;;;;;;2.70;0.65;;;23.80;44.20;;;;;;4978392;28;46378;-60
2022/03/16 15:12:54;;;;;;;0.40;0.40;;;23.80;44.30;;;;;;4954483;28;45382;-63
2022/03/16 15:15:19;;;;;;;0.52;0.50;;;23.80;44.40;;;;;;4958724;28;44724;-66
2022/03/16 15:17:45;;;;;;;0.30;0.30;;;23.70;44.40;;;;;;4979821;28;45240;-62
2022/03/16 15:20:12;;;;;;;1.08;0.60;;;23.70;44.40;;;;;;4961771;28;45276;-63
2022/03/16 15:22:38;;;;;;;0.68;0.50;;;23.70;44.50;;;;;;4964943;28;45391;-62
2022/03/16 15:25:04;;;;;;;1.55;0.55;;;23.60;44.40;;;;;;4974126;28;45393;-64
2022/03/16 15:27:31;;;;;;;0.45;0.45;;;23.60;44.50;;;;;;4974181;28;45401;-65
2022/03/16 15:29:58;;;;;;;0.98;0.77;;;23.60;44.60;;;;;;4970610;28;45174;-62
2022/03/16 15:32:26;;;;;;;0.60;0.60;;;23.50;44.60;;;;;;4968292;28;45211;-61
2022/03/16 15:34:52;;;;;;;0.50;0.50;;;23.50;44.70;;;;;;4970128;28;45175;-61
2022/03/16 15:37:17;;;;;;;0.45;0.45;;;23.40;44.70;;;;;;4965537;28;45292;-60
2022/03/16 15:42:38;;;;;;;0.57;0.57;;;23.40;44.80;;;;;;4964839;28;45530;-61
2022/03/16 15:42:45;;;;;;;1.67;0.65;;;23.40;44.90;;;;;;4965652;28;46065;-63
2022/03/16 15:45:11;;;;;;;1.25;0.80;;;23.30;44.90;;;;;;4966184;28;45316;-65
2022/03/16 15:47:37;;;;;;;0.40;0.40;;;23.30;45.00;;;;;;4956155;28;45709;-63
2022/03/16 15:50:05;;;;;;;0.60;0.60;;;23.20;45.00;;;;;;4960360;28;45945;-64
2022/03/16 15:52:34;;;;;;;0.60;0.60;;;23.20;45.00;;;;;;4947369;28;44778;-63
2022/03/16 15:55:01;;;;;;;0.63;0.60;;;23.10;45.10;;;;;;4976379;28;44843;-62
2022/03/16 15:57:26;;;;;;;2.45;0.50;;;23.10;45.10;;;;;;4957167;28;45679;-62
2022/03/16 15:59:52;;;;;;;0.68;0.68;;;23.10;45.20;;;;;;4964636;28;45802;-61
2022/03/16 16:02:17;;;;;;;0.43;0.43;;;23.10;45.20;;;;;;4955230;28;45251;-63
2022/03/16 16:04:44;;;;;;;0.50;0.50;;;23.10;45.20;;;;;;4954804;28;45488;-60
2022/03/16 16:07:14;;;;;;;0.60;0.60;;;23.00;45.20;;;;;;4954991;28;45207;-64
2022/03/16 16:09:40;;;;;;;0.63;0.60;;;23.00;45.30;;;;;;4956358;28;45599;-64
2022/03/16 16:12:06;;;;;;;1.45;0.50;;;22.90;45.30;;;;;;4956457;28;44773;-63
2022/03/16 16:14:32;;;;;;;0.90;0.60;;;22.90;45.40;;;;;;4955178;28;45555;-64
2022/03/16 16:16:57;;;;;;;0.82;0.70;;;22.90;45.30;;;;;;4959850;28;45828;-63
2022/03/16 16:19:23;;;;;;;0.50;0.50;;;22.90;45.40;;;;;;4952211;28;48444;-62
2022/03/16 16:21:51;;;;;;;0.60;0.60;;;22.80;45.50;;;;;;4965771;28;45330;-63
2022/03/16 16:24:17;;;;;;;0.60;0.60;;;22.80;45.50;;;;;;4960929;28;45502;-68
2022/03/16 16:26:42;;;;;;;0.43;0.43;;;22.70;45.50;;;;;;4953562;28;45342;-62
2022/03/16 16:29:09;;;;;;;0.47;0.47;;;22.70;45.60;;;;;;4961551;28;46881;-69
2022/03/16 16:31:38;;;;;;;0.50;0.50;;;22.70;45.60;;;;;;4955896;28;45346;-64
2022/03/16 16:34:04;;;;;;;0.65;0.60;;;22.60;45.60;;;;;;4961894;28;45421;-65
2022/03/16 16:36:30;;;;;;;0.70;0.70;;;22.60;45.60;;;;;;4958826;28;45259;-63
2022/03/16 16:38:57;;;;;;;1.00;0.80;;;22.60;45.70;;;;;;4963013;28;45354;-65
2022/03/16 16:41:24;;;;;;;0.60;0.60;;;22.60;45.70;;;;;;4963236;28;45626;-64
2022/03/16 16:43:50;;;;;;;0.57;0.52;;;22.60;45.80;;;;;;4948912;28;46288;-70
2022/03/16 16:46:15;;;;;;;0.80;0.80;;;22.50;45.80;;;;;;4959193;28;45600;-64
2022/03/16 16:48:42;;;;;;;0.88;0.65;;;22.50;45.80;;;;;;4954960;28;45314;-63
2022/03/16 16:51:09;;;;;;;0.77;0.55;;;22.50;45.90;;;;;;4961381;28;45551;-62
2022/03/16 16:53:37;;;;;;;1.00;0.70;;;22.40;45.90;;;;;;4954400;28;45026;-62
2022/03/16 16:56:03;;;;;;;0.95;0.73;;;22.40;45.90;;;;;;4953848;28;46253;-62
2022/03/16 16:58:29;;;;;;;2.05;0.70;;;22.40;45.90;;;;;;4973215;28;47317;-63
2022/03/16 17:00:54;;;;;;;1.30;0.60;;;22.40;45.90;;;;;;4935020;28;45183;-63
2022/03/16 17:03:20;;;;;;;0.82;0.63;;;22.30;46.00;;;;;;4950705;28;45427;-63
2022/03/16 17:05:46;;;;;;;0.80;0.68;;;22.30;46.00;;;;;;4955352;28;45251;-63
2022/03/16 17:08:13;;;;;;;0.60;0.60;;;22.30;46.00;;;;;;4970513;28;46028;-63
2022/03/16 17:10:43;;;;;;;0.73;0.73;;;22.20;46.00;;;;;;4941152;28;45295;-65
2022/03/16 17:13:09;;;;;;;0.63;0.63;;;22.20;46.00;;;;;;4955577;28;45430;-62